createdAt,value
2023-02-04T00:00:56.792Z,5.53
2023-02-04T00:03:23.296Z,5.33
2023-02-04T00:05:50.467Z,5.22
2023-02-04T00:08:17.043Z,5.16
2023-02-04T00:10:43.516Z,5.08
2023-02-04T00:13:10.072Z,5.21
2023-02-04T00:15:36.754Z,5.41
2023-02-04T00:18:03.956Z,5.25
2023-02-04T00:20:30.718Z,5.21
2023-02-04T00:22:57.620Z,5.12
2023-02-04T00:25:24.235Z,5.00
2023-02-04T00:27:54.022Z,4.92
2023-02-04T00:30:23.603Z,4.95
2023-02-04T00:32:54.870Z,4.93
2023-02-04T00:35:22.388Z,4.92
2023-02-04T00:37:51.580Z,4.99
2023-02-04T00:40:18.189Z,4.72
2023-02-04T00:42:44.763Z,5.02
2023-02-04T00:45:12.500Z,5.12
2023-02-04T00:47:39.070Z,5.16
2023-02-04T00:50:06.151Z,5.11
2023-02-04T00:52:33.077Z,5.12
2023-02-04T00:54:59.519Z,4.95
2023-02-04T00:57:25.951Z,4.88
2023-02-04T00:59:55.915Z,4.87
2023-02-04T01:02:26.005Z,4.74
2023-02-04T01:04:53.019Z,4.61
2023-02-04T01:07:19.576Z,4.95
2023-02-04T01:09:46.087Z,4.97
2023-02-04T01:12:12.503Z,4.98
2023-02-04T01:14:38.986Z,4.90
2023-02-04T01:17:05.716Z,4.87
2023-02-04T01:19:32.324Z,4.88
2023-02-04T01:21:58.817Z,4.78
2023-02-04T01:24:25.249Z,4.67
2023-02-04T01:26:54.096Z,4.84
2023-02-04T01:29:20.572Z,4.72
2023-02-04T01:31:47.095Z,4.75
2023-02-04T01:34:13.552Z,4.61
2023-02-04T01:36:40.026Z,4.73
2023-02-04T01:39:06.490Z,4.92
2023-02-04T01:41:33.870Z,4.87
2023-02-04T01:44:00.486Z,5.01
2023-02-04T01:46:27.054Z,5.22
2023-02-04T01:48:57.986Z,5.13
2023-02-04T01:51:30.370Z,5.03
2023-02-04T01:53:56.928Z,4.95
2023-02-04T01:56:26.779Z,5.16
2023-02-04T01:58:56.200Z,5.21
2023-02-04T02:01:38.413Z,5.39
2023-02-04T02:04:05.880Z,5.17
2023-02-04T02:06:32.414Z,5.12
2023-02-04T02:08:58.986Z,4.98
2023-02-04T02:11:28.958Z,4.97
2023-02-04T02:13:58.507Z,5.07
2023-02-04T02:16:29.830Z,5.07
2023-02-04T02:19:00.045Z,5.10
2023-02-04T02:21:42.465Z,5.23
2023-02-04T02:24:30.980Z,5.18
2023-02-04T02:27:00.224Z,5.13
2023-02-04T02:29:29.697Z,5.07
2023-02-04T02:32:00.211Z,5.21
2023-02-04T02:34:31.103Z,5.14
2023-02-04T02:37:02.212Z,5.27
2023-02-04T02:39:29.188Z,5.22
2023-02-04T02:41:59.781Z,5.23
2023-02-04T02:44:30.819Z,5.18
2023-02-04T02:47:01.410Z,5.05
2023-02-04T02:49:32.813Z,5.02
2023-02-04T02:51:59.412Z,5.05
2023-02-04T02:54:31.155Z,5.11
2023-02-04T02:57:00.798Z,5.11
2023-02-04T02:59:29.184Z,5.24
2023-02-04T03:02:01.353Z,5.29
2023-02-04T03:04:35.737Z,5.24
2023-02-04T03:07:02.335Z,5.24
2023-02-04T03:09:29.995Z,5.10
2023-02-04T03:11:56.643Z,5.13
2023-02-04T03:14:25.253Z,5.06
2023-02-04T03:16:54.508Z,5.01
2023-02-04T03:19:21.103Z,5.08
2023-02-04T03:21:47.678Z,5.28
2023-02-04T03:24:14.389Z,5.28
2023-02-04T03:26:40.892Z,5.24
2023-02-04T03:29:09.889Z,5.24
2023-02-04T03:31:37.964Z,5.22
2023-02-04T03:34:04.727Z,5.34
2023-02-04T03:36:31.160Z,5.30
2023-02-04T03:38:57.679Z,5.37
2023-02-04T03:41:24.274Z,5.36
2023-02-04T03:43:50.748Z,5.20
2023-02-04T03:46:17.251Z,5.15
2023-02-04T03:48:43.716Z,5.01
2023-02-04T03:51:10.132Z,5.02
2023-02-04T03:53:36.670Z,5.10
2023-02-04T03:56:03.308Z,4.92
2023-02-04T03:58:31.810Z,4.96
2023-02-04T04:00:58.501Z,5.00
2023-02-04T04:03:25.050Z,4.95
2023-02-04T04:05:51.533Z,4.93
2023-02-04T04:08:18.025Z,4.97
2023-02-04T04:10:44.610Z,5.13
2023-02-04T04:13:11.089Z,5.08
2023-02-04T04:15:37.578Z,5.16
2023-02-04T04:18:04.699Z,5.13
2023-02-04T04:20:33.881Z,5.18
2023-02-04T04:23:00.603Z,5.10
2023-02-04T04:25:27.043Z,4.93
2023-02-04T04:27:53.602Z,4.89
2023-02-04T04:30:20.166Z,4.92
2023-02-04T04:32:46.664Z,4.93
2023-02-04T04:35:13.139Z,4.91
2023-02-04T04:37:39.603Z,5.03
2023-02-04T04:40:06.516Z,4.77
2023-02-04T04:42:36.777Z,4.76
2023-02-04T04:45:09.225Z,4.79
2023-02-04T04:47:35.724Z,4.69
2023-02-04T04:50:04.730Z,4.62
2023-02-04T04:52:31.248Z,4.57
2023-02-04T04:54:57.735Z,4.54
2023-02-04T04:57:24.196Z,4.61
2023-02-04T04:59:50.759Z,4.62
2023-02-04T05:02:17.264Z,4.60
2023-02-04T05:04:43.812Z,4.61
2023-02-04T05:07:10.285Z,4.66
2023-02-04T05:09:36.795Z,4.74
2023-02-04T05:12:03.350Z,4.76
2023-02-04T05:14:30.504Z,4.77
2023-02-04T05:16:56.977Z,4.85
2023-02-04T05:19:23.485Z,4.90
2023-02-04T05:21:49.938Z,4.98
2023-02-04T05:24:16.447Z,4.98
2023-02-04T05:26:43.006Z,4.96
2023-02-04T05:29:10.791Z,4.92
2023-02-04T05:31:37.470Z,4.94
2023-02-04T05:34:04.373Z,4.95
2023-02-04T05:36:31.616Z,4.95
2023-02-04T05:38:58.087Z,4.94
2023-02-04T05:41:24.529Z,4.95
2023-02-04T05:43:50.968Z,4.89
2023-02-04T05:46:17.481Z,4.83
2023-02-04T05:48:43.992Z,4.92
2023-02-04T05:51:10.748Z,4.91
2023-02-04T05:53:38.438Z,4.90
2023-02-04T05:56:05.234Z,4.84
2023-02-04T05:58:33.659Z,4.82
2023-02-04T06:01:04.499Z,4.84
2023-02-04T06:03:35.867Z,4.75
2023-02-04T06:06:03.462Z,4.84
2023-02-04T06:08:29.940Z,4.72
2023-02-04T06:10:56.477Z,4.84
2023-02-04T06:13:23.101Z,4.88
2023-02-04T06:15:49.579Z,4.82
2023-02-04T06:18:16.025Z,4.94
2023-02-04T06:20:42.554Z,5.02
2023-02-04T06:23:09.067Z,5.04
2023-02-04T06:25:36.651Z,4.87
2023-02-04T06:28:03.246Z,4.87
2023-02-04T06:30:29.921Z,4.91
2023-02-04T06:32:56.535Z,4.89
2023-02-04T06:35:23.010Z,4.82
2023-02-04T06:37:49.521Z,4.73
2023-02-04T06:40:16.108Z,4.63
2023-02-04T06:42:42.608Z,4.64
2023-02-04T06:45:09.296Z,4.67
2023-02-04T06:47:37.863Z,4.62
2023-02-04T06:50:04.464Z,4.45
2023-02-04T06:52:31.178Z,4.53
2023-02-04T06:54:58.129Z,4.35
2023-02-04T06:57:25.078Z,4.50
2023-02-04T06:59:51.813Z,4.58
2023-02-04T07:02:18.818Z,4.48
2023-02-04T07:04:47.692Z,4.35
2023-02-04T07:07:14.435Z,4.37
2023-02-04T07:09:40.948Z,4.31
2023-02-04T07:12:08.887Z,4.33
2023-02-04T07:14:42.480Z,4.47
2023-02-04T07:17:08.999Z,4.62
2023-02-04T07:19:40.222Z,4.53
2023-02-04T07:22:10.213Z,4.61
2023-02-04T07:24:38.189Z,4.68
2023-02-04T07:27:04.777Z,4.91
2023-02-04T07:29:31.248Z,4.76
2023-02-04T07:31:57.820Z,4.85
2023-02-04T07:34:24.405Z,4.88
2023-02-04T07:36:51.016Z,4.84
2023-02-04T07:39:17.902Z,4.96
2023-02-04T07:41:44.738Z,5.03
2023-02-04T07:44:11.666Z,5.01
2023-02-04T07:46:40.778Z,5.07
2023-02-04T07:49:10.468Z,4.92
2023-02-04T07:51:39.749Z,5.03
2023-02-04T07:54:08.651Z,5.10
2023-02-04T07:56:35.219Z,5.21
2023-02-04T07:59:01.745Z,5.22
2023-02-04T08:01:28.232Z,5.30
2023-02-04T08:03:54.761Z,5.36
2023-02-04T08:06:21.285Z,5.29
2023-02-04T08:08:47.816Z,5.43
2023-02-04T08:11:14.234Z,5.53
2023-02-04T08:13:40.709Z,5.53
2023-02-04T08:16:11.924Z,5.44
2023-02-04T08:18:41.342Z,5.60
2023-02-04T08:21:10.525Z,5.56
2023-02-04T08:23:41.734Z,5.59
2023-02-04T08:26:12.585Z,5.66
2023-02-04T08:28:39.203Z,5.70
2023-02-04T08:31:11.904Z,5.72
2023-02-04T08:33:39.802Z,5.75
2023-02-04T08:36:08.547Z,5.75
2023-02-04T08:38:35.528Z,5.72
2023-02-04T08:41:02.841Z,5.81
2023-02-04T08:43:29.321Z,5.83
2023-02-04T08:45:55.855Z,5.95
2023-02-04T08:48:22.381Z,6.12
2023-02-04T08:50:48.876Z,6.17
2023-02-04T08:53:15.461Z,5.99
2023-02-04T08:55:44.813Z,5.97
2023-02-04T08:58:12.496Z,6.13
2023-02-04T09:00:39.113Z,6.05
2023-02-04T09:03:08.508Z,6.04
2023-02-04T09:05:34.965Z,6.12
2023-02-04T09:08:01.588Z,6.27
2023-02-04T09:10:28.046Z,6.09
2023-02-04T09:12:56.114Z,6.28
2023-02-04T09:15:25.814Z,6.12
2023-02-04T09:18:04.415Z,6.17
2023-02-04T09:20:31.149Z,6.25
2023-02-04T09:22:57.815Z,6.05
2023-02-04T09:25:24.321Z,6.00
2023-02-04T09:27:50.841Z,5.94
2023-02-04T09:30:18.949Z,6.03
2023-02-04T09:32:45.413Z,6.09
2023-02-04T09:35:11.865Z,6.14
2023-02-04T09:37:41.293Z,6.39
2023-02-04T09:40:17.040Z,6.43
2023-02-04T09:42:46.968Z,6.65
2023-02-04T09:45:35.257Z,6.93
2023-02-04T09:48:04.345Z,7.16
2023-02-04T09:50:32.785Z,7.26
2023-02-04T09:53:04.129Z,7.47
2023-02-04T09:55:33.901Z,7.73
2023-02-04T09:58:00.728Z,7.75
2023-02-04T10:00:30.592Z,7.66
2023-02-04T10:03:00.129Z,7.81
2023-02-04T10:05:33.401Z,7.98
2023-02-04T10:08:00.499Z,7.89
2023-02-04T10:10:27.803Z,7.99
2023-02-04T10:12:58.864Z,8.03
2023-02-04T10:15:26.037Z,7.97
2023-02-04T10:17:57.753Z,7.91
2023-02-04T10:20:25.602Z,7.97
2023-02-04T10:22:54.616Z,7.95
2023-02-04T10:25:24.078Z,7.91
2023-02-04T10:27:50.860Z,7.85
2023-02-04T10:30:24.030Z,7.77
2023-02-04T10:32:51.711Z,7.99
2023-02-04T10:35:20.619Z,7.80
2023-02-04T10:37:51.114Z,8.01
2023-02-04T10:40:32.897Z,7.90
2023-02-04T10:43:00.199Z,7.87
2023-02-04T10:45:30.329Z,7.76
2023-02-04T10:47:59.280Z,7.63
2023-02-04T10:50:27.496Z,7.60
2023-02-04T10:53:16.460Z,7.64
2023-02-04T10:55:47.785Z,7.69
2023-02-04T10:58:20.634Z,7.72
2023-02-04T11:00:48.140Z,7.63
2023-02-04T11:03:28.763Z,7.54
2023-02-04T11:06:00.947Z,7.75
2023-02-04T11:08:39.098Z,7.73
2023-02-04T11:11:17.678Z,8.00
2023-02-04T11:13:50.548Z,8.11
2023-02-04T11:16:23.501Z,8.07
2023-02-04T11:18:58.541Z,8.16
2023-02-04T11:21:33.942Z,8.07
2023-02-04T11:24:12.509Z,8.14
2023-02-04T11:26:41.626Z,8.20
2023-02-04T11:29:26.862Z,8.08
2023-02-04T11:32:00.284Z,8.07
2023-02-04T11:34:29.742Z,8.00
2023-02-04T11:36:59.413Z,7.92
2023-02-04T11:39:32.108Z,7.94
2023-02-04T11:42:00.244Z,8.19
2023-02-04T11:44:27.204Z,8.28
2023-02-04T11:46:58.563Z,8.34
2023-02-04T11:49:27.086Z,8.27
2023-02-04T11:52:08.925Z,8.33
2023-02-04T11:54:39.041Z,8.57
2023-02-04T11:57:07.949Z,8.58
2023-02-04T11:59:34.443Z,8.80
2023-02-04T12:02:25.932Z,9.00
2023-02-04T12:04:57.411Z,9.15
2023-02-04T12:07:29.041Z,9.12
2023-02-04T12:09:58.568Z,9.15
2023-02-04T12:12:27.827Z,9.10
2023-02-04T12:15:13.574Z,9.13
2023-02-04T12:17:40.103Z,9.17
2023-02-04T12:20:08.291Z,9.15
2023-02-04T12:22:34.729Z,9.02
2023-02-04T12:25:01.211Z,9.15
2023-02-04T12:27:27.660Z,9.29
2023-02-04T12:29:54.122Z,9.29
2023-02-04T12:32:20.545Z,9.95
2023-02-04T12:34:46.969Z,10.11
2023-02-04T12:37:13.454Z,10.37
2023-02-04T12:39:39.987Z,10.52
2023-02-04T12:42:09.646Z,10.35
2023-02-04T12:44:37.845Z,10.48
2023-02-04T12:47:04.466Z,10.45
2023-02-04T12:49:30.940Z,10.32
2023-02-04T12:51:59.229Z,10.31
2023-02-04T12:54:25.805Z,10.22
2023-02-04T12:56:53.515Z,10.24
2023-02-04T12:59:20.003Z,10.16
2023-02-04T13:01:46.558Z,10.34
2023-02-04T13:04:13.087Z,10.44
2023-02-04T13:06:39.538Z,10.30
2023-02-04T13:09:09.370Z,10.23
2023-02-04T13:11:38.211Z,10.37
2023-02-04T13:14:04.710Z,10.49
2023-02-04T13:16:31.548Z,10.44
2023-02-04T13:18:58.043Z,10.47
2023-02-04T13:21:24.477Z,10.57
2023-02-04T13:23:51.027Z,10.65
2023-02-04T13:26:17.477Z,10.55
2023-02-04T13:28:43.946Z,10.59
2023-02-04T13:31:10.577Z,10.47
2023-02-04T13:33:39.130Z,10.64
2023-02-04T13:36:06.078Z,10.71
2023-02-04T13:38:32.649Z,10.67
2023-02-04T13:40:59.180Z,10.45
2023-02-04T13:43:25.895Z,10.61
2023-02-04T13:45:52.443Z,11.00
2023-02-04T13:48:18.942Z,11.16
2023-02-04T13:50:45.632Z,11.17
2023-02-04T13:53:12.096Z,11.09
2023-02-04T13:55:38.579Z,10.87
2023-02-04T13:58:05.273Z,10.64
2023-02-04T14:00:32.218Z,10.45
2023-02-04T14:02:58.956Z,10.33
2023-02-04T14:05:25.538Z,10.00
2023-02-04T14:07:52.132Z,9.87
2023-02-04T14:10:19.098Z,9.95
2023-02-04T14:12:45.836Z,9.95
2023-02-04T14:15:12.298Z,9.93
2023-02-04T14:17:41.587Z,9.73
2023-02-04T14:20:16.131Z,9.75
2023-02-04T14:22:42.950Z,9.78
2023-02-04T14:25:12.459Z,9.65
2023-02-04T14:27:42.340Z,9.63
2023-02-04T14:30:21.967Z,9.46
2023-02-04T14:32:48.885Z,9.52
2023-02-04T14:35:16.520Z,9.49
2023-02-04T14:37:46.941Z,9.57
2023-02-04T14:40:14.995Z,9.60
2023-02-04T14:42:44.713Z,9.56
2023-02-04T14:45:15.231Z,9.59
2023-02-04T14:47:49.232Z,9.47
2023-02-04T14:50:16.773Z,9.48
2023-02-04T14:52:43.276Z,9.34
2023-02-04T14:55:14.396Z,9.34
2023-02-04T14:57:45.070Z,9.19
2023-02-04T15:00:14.839Z,9.27
2023-02-04T15:02:42.567Z,9.31
2023-02-04T15:05:12.332Z,9.04
2023-02-04T15:07:41.331Z,9.38
2023-02-04T15:10:10.289Z,9.20
2023-02-04T15:12:36.930Z,9.14
2023-02-04T15:15:04.062Z,9.27
2023-02-04T15:17:30.526Z,9.13
2023-02-04T15:19:56.971Z,9.10
2023-02-04T15:22:23.420Z,8.99
2023-02-04T15:24:50.014Z,9.22
2023-02-04T15:27:16.562Z,9.01
2023-02-04T15:29:43.089Z,9.10
2023-02-04T15:32:13.454Z,8.98
2023-02-04T15:34:42.056Z,8.96
2023-02-04T15:37:13.652Z,9.01
2023-02-04T15:39:44.273Z,8.99
2023-02-04T15:42:14.457Z,9.05
2023-02-04T15:44:44.540Z,9.07
2023-02-04T15:47:12.743Z,9.16
2023-02-04T15:49:39.197Z,9.05
2023-02-04T15:52:07.127Z,9.07
2023-02-04T15:54:38.290Z,9.17
2023-02-04T15:57:04.722Z,9.06
2023-02-04T15:59:31.198Z,8.90
2023-02-04T16:01:57.708Z,9.01
2023-02-04T16:04:24.188Z,8.82
2023-02-04T16:06:58.480Z,8.82
2023-02-04T16:09:26.006Z,8.87
2023-02-04T16:11:52.498Z,8.81
2023-02-04T16:14:18.989Z,8.78
2023-02-04T16:16:45.518Z,8.80
2023-02-04T16:19:14.938Z,8.67
2023-02-04T16:21:44.182Z,8.59
2023-02-04T16:24:16.114Z,8.57
2023-02-04T16:26:42.857Z,8.77
2023-02-04T16:29:09.427Z,8.56
2023-02-04T16:31:35.934Z,8.61
2023-02-04T16:34:05.789Z,8.71
2023-02-04T16:36:32.353Z,8.70
2023-02-04T16:38:59.496Z,8.69
2023-02-04T16:41:26.171Z,8.65
2023-02-04T16:43:52.724Z,8.61
2023-02-04T16:46:19.301Z,8.72
2023-02-04T16:48:45.845Z,8.72
2023-02-04T16:51:13.044Z,8.67
2023-02-04T16:53:39.611Z,8.56
2023-02-04T16:56:07.014Z,8.41
2023-02-04T16:58:33.520Z,8.55
2023-02-04T17:01:00.019Z,8.51
2023-02-04T17:03:28.060Z,8.64
2023-02-04T17:05:56.117Z,8.45
2023-02-04T17:08:22.659Z,8.67
2023-02-04T17:11:08.350Z,8.49
2023-02-04T17:13:34.899Z,8.70
2023-02-04T17:16:01.949Z,8.62
2023-02-04T17:18:29.991Z,8.62
2023-02-04T17:20:57.560Z,8.52
2023-02-04T17:23:24.066Z,8.54
2023-02-04T17:25:50.599Z,8.62
2023-02-04T17:28:17.491Z,8.65
2023-02-04T17:30:46.879Z,8.45
2023-02-04T17:33:17.475Z,8.42
2023-02-04T17:35:46.743Z,8.44
2023-02-04T17:38:16.016Z,8.41
2023-02-04T17:40:46.430Z,8.45
2023-02-04T17:43:13.880Z,8.65
2023-02-04T17:45:40.339Z,8.38
2023-02-04T17:48:06.894Z,8.42
2023-02-04T17:53:08.967Z,8.42
2023-02-04T17:55:37.875Z,8.24
2023-02-04T17:58:15.672Z,8.42
2023-02-04T18:00:45.936Z,8.39
2023-02-04T18:03:23.847Z,8.39
2023-02-04T18:05:52.532Z,8.29
2023-02-04T18:08:22.241Z,8.30
2023-02-04T18:10:51.847Z,8.17
2023-02-04T18:13:18.352Z,8.42
2023-02-04T18:15:57.482Z,8.40
2023-02-04T18:18:37.738Z,8.28
2023-02-04T18:21:43.112Z,8.34
2023-02-04T18:24:09.840Z,8.29
2023-02-04T18:26:49.650Z,8.33
2023-02-04T18:29:56.683Z,8.26
2023-02-04T18:32:48.933Z,7.93
2023-02-04T18:35:40.464Z,8.31
2023-02-04T18:38:21.359Z,8.30
2023-02-04T18:41:00.228Z,8.20
2023-02-04T18:43:29.794Z,8.33
2023-02-04T18:46:07.547Z,8.28
2023-02-04T18:49:25.617Z,8.30
2023-02-04T18:51:59.362Z,8.19
2023-02-04T18:54:51.192Z,8.28
2023-02-04T18:57:29.208Z,8.23
2023-02-04T19:00:11.146Z,8.25
2023-02-04T19:02:53.881Z,8.20
2023-02-04T19:05:32.317Z,8.22
2023-02-04T19:08:21.230Z,8.18
2023-02-04T19:10:52.468Z,8.10
2023-02-04T19:13:35.918Z,8.02
2023-02-04T19:16:23.964Z,8.25
2023-02-04T19:18:52.660Z,8.29
2023-02-04T19:21:27.135Z,8.34
2023-02-04T19:24:14.249Z,8.24
2023-02-04T19:26:57.439Z,8.18
2023-02-04T19:29:30.250Z,8.17
2023-02-04T19:32:25.707Z,8.10
2023-02-04T19:34:53.187Z,8.20
2023-02-04T19:37:24.978Z,8.11
2023-02-04T19:39:51.673Z,7.94
2023-02-04T19:42:34.472Z,7.99
2023-02-04T19:45:12.731Z,7.88
2023-02-04T19:47:44.394Z,7.97
2023-02-04T19:50:13.933Z,7.91
2023-02-04T19:52:47.497Z,8.01
2023-02-04T19:55:16.738Z,7.93
2023-02-04T19:58:22.602Z,7.91
2023-02-04T20:01:04.842Z,7.89
2023-02-04T20:03:40.183Z,7.90
2023-02-04T20:06:09.727Z,7.84
2023-02-04T20:08:46.573Z,7.84
2023-02-04T20:11:31.095Z,7.85
2023-02-04T20:14:07.963Z,7.82
2023-02-04T20:16:47.027Z,7.87
2023-02-04T20:19:27.159Z,7.90
2023-02-04T20:22:15.245Z,7.91
2023-02-04T20:24:42.703Z,7.89
2023-02-04T20:27:16.918Z,7.67
2023-02-04T20:29:43.539Z,7.90
2023-02-04T20:32:26.292Z,7.84
2023-02-04T20:34:58.638Z,7.90
2023-02-04T20:37:43.666Z,7.82
2023-02-04T20:40:37.530Z,7.81
2023-02-04T20:43:12.259Z,7.85
2023-02-04T20:45:53.221Z,7.88
2023-02-04T20:48:26.325Z,7.95
2023-02-04T20:50:54.708Z,7.82
2023-02-04T20:53:28.099Z,7.91
2023-02-04T20:56:05.128Z,7.79
2023-02-04T20:58:37.571Z,7.88
2023-02-04T21:01:29.048Z,7.82
2023-02-04T21:03:57.709Z,7.89
2023-02-04T21:06:30.063Z,7.77
2023-02-04T21:08:59.052Z,7.91
2023-02-04T21:11:26.561Z,7.80
2023-02-04T21:13:54.433Z,7.80
2023-02-04T21:16:23.916Z,7.92
2023-02-04T21:18:51.114Z,7.77
2023-02-04T21:21:17.856Z,7.84
2023-02-04T21:23:44.312Z,7.76
2023-02-04T21:26:10.782Z,7.76
2023-02-04T21:28:37.298Z,7.92
2023-02-04T21:31:04.234Z,7.75
2023-02-04T21:33:30.813Z,7.94
2023-02-04T21:35:57.409Z,7.87
2023-02-04T21:38:23.918Z,7.88
2023-02-04T21:40:55.470Z,7.85
2023-02-04T21:43:22.592Z,7.73
2023-02-04T21:45:49.024Z,7.88
2023-02-04T21:48:15.452Z,7.86
2023-02-04T21:50:44.145Z,7.86
2023-02-04T21:53:10.939Z,7.72
2023-02-04T21:55:37.811Z,7.91
2023-02-04T21:58:05.415Z,7.89
2023-02-04T22:00:32.164Z,7.89
2023-02-04T22:02:58.736Z,7.80
2023-02-04T22:05:25.533Z,7.85
2023-02-04T22:07:55.348Z,7.78
2023-02-04T22:10:24.960Z,7.79
2023-02-04T22:12:54.146Z,7.83
2023-02-04T22:15:24.638Z,7.87
2023-02-04T22:17:56.290Z,7.77
2023-02-04T22:20:25.579Z,7.78
2023-02-04T22:22:59.678Z,7.87
2023-02-04T22:25:28.241Z,7.66
2023-02-04T22:27:57.544Z,7.92
2023-02-04T22:30:27.159Z,7.88
2023-02-04T22:32:56.611Z,7.95
2023-02-04T22:35:25.577Z,7.90
2023-02-04T22:37:52.065Z,7.91
2023-02-04T22:40:18.787Z,7.85
2023-02-04T22:42:45.449Z,7.96
2023-02-04T22:45:12.960Z,7.71
2023-02-04T22:47:39.471Z,7.88
2023-02-04T22:50:06.281Z,7.90
2023-02-04T22:52:32.968Z,7.82
2023-02-04T22:54:59.544Z,7.86
2023-02-04T22:57:28.890Z,7.62
2023-02-04T22:59:56.886Z,7.67
2023-02-04T23:02:23.329Z,7.72
2023-02-04T23:04:49.794Z,7.80
2023-02-04T23:07:16.313Z,7.79
2023-02-04T23:09:42.843Z,7.87
2023-02-04T23:12:15.453Z,7.82
2023-02-04T23:14:44.223Z,7.71
2023-02-04T23:17:11.496Z,7.72
2023-02-04T23:19:38.321Z,7.64
2023-02-04T23:22:06.150Z,7.73
2023-02-04T23:24:33.275Z,7.78
2023-02-04T23:27:00.240Z,7.78
2023-02-04T23:29:32.260Z,7.83
2023-02-04T23:31:59.024Z,7.70
2023-02-04T23:34:28.304Z,7.82
2023-02-04T23:36:54.792Z,7.60
2023-02-04T23:39:21.904Z,7.70
2023-02-04T23:41:49.119Z,7.66
2023-02-04T23:44:15.602Z,7.52
2023-02-04T23:46:42.156Z,7.63
2023-02-04T23:49:09.235Z,7.72
2023-02-04T23:51:36.078Z,7.66
2023-02-04T23:54:02.738Z,7.60
2023-02-04T23:56:30.298Z,7.65
2023-02-04T23:58:59.285Z,7.70
